createdAt,value
2018-07-14T00:00:20.188Z,4.90
2018-07-14T00:02:49.428Z,5.63
2018-07-14T00:05:18.620Z,4.60
2018-07-14T00:07:47.772Z,4.73
2018-07-14T00:10:17.220Z,4.70
2018-07-14T00:12:46.424Z,5.00
2018-07-14T00:15:15.723Z,4.80
2018-07-14T00:17:44.940Z,4.03
2018-07-14T00:20:14.189Z,5.17
2018-07-14T00:22:43.434Z,4.90
2018-07-14T00:25:12.694Z,5.07
2018-07-14T00:27:41.957Z,5.07
2018-07-14T00:30:11.367Z,4.67
2018-07-14T00:32:40.579Z,4.80
2018-07-14T00:35:09.787Z,4.90
2018-07-14T00:37:39.029Z,5.10
2018-07-14T00:40:08.327Z,5.40
2018-07-14T00:42:37.244Z,4.83
2018-07-14T00:45:06.365Z,5.20
2018-07-14T00:47:36.191Z,5.37
2018-07-14T00:50:05.532Z,5.40
2018-07-14T00:52:34.981Z,5.30
2018-07-14T00:55:04.088Z,5.23
2018-07-14T00:57:33.297Z,5.03
2018-07-14T01:00:02.531Z,5.00
2018-07-14T01:02:31.900Z,5.40
2018-07-14T01:05:01.111Z,4.90
2018-07-14T01:07:30.366Z,5.07
2018-07-14T01:09:59.544Z,5.07
2018-07-14T01:12:29.245Z,4.80
2018-07-14T01:14:58.772Z,5.40
2018-07-14T01:17:28.033Z,5.50
2018-07-14T01:19:57.645Z,4.67
2018-07-14T01:22:27.611Z,5.00
2018-07-14T01:24:57.249Z,5.37
2018-07-14T01:27:26.445Z,5.30
2018-07-14T01:29:55.657Z,4.80
2018-07-14T01:32:24.860Z,4.50
2018-07-14T01:34:54.060Z,4.60
2018-07-14T01:37:23.712Z,4.77
2018-07-14T01:39:53.399Z,4.60
2018-07-14T01:42:22.576Z,5.03
2018-07-14T01:44:51.800Z,5.03
2018-07-14T01:47:21.005Z,4.70
2018-07-14T01:49:50.224Z,4.93
2018-07-14T01:52:19.577Z,4.77
2018-07-14T01:54:48.773Z,5.23
2018-07-14T01:57:17.723Z,4.70
2018-07-14T01:59:47.129Z,5.07
2018-07-14T02:02:16.468Z,5.07
2018-07-14T02:04:45.728Z,5.00
2018-07-14T02:07:14.955Z,5.73
2018-07-14T02:09:44.168Z,5.13
2018-07-14T02:12:13.358Z,4.27
2018-07-14T02:14:43.040Z,5.90
2018-07-14T02:17:12.268Z,4.97
2018-07-14T02:19:41.584Z,4.80
2018-07-14T02:22:10.727Z,5.33
2018-07-14T02:24:39.936Z,4.70
2018-07-14T02:27:09.144Z,5.10
2018-07-14T02:29:38.363Z,5.63
2018-07-14T02:32:07.610Z,4.90
2018-07-14T02:34:36.823Z,6.23
2018-07-14T02:37:06.466Z,5.83
2018-07-14T02:39:35.744Z,5.50
2018-07-14T02:42:04.973Z,5.07
2018-07-14T02:44:34.828Z,5.27
2018-07-14T02:47:04.085Z,5.43
2018-07-14T02:49:33.304Z,5.97
2018-07-14T02:52:02.529Z,5.77
2018-07-14T02:54:31.740Z,5.30
2018-07-14T02:57:00.934Z,5.43
2018-07-14T02:59:30.161Z,5.10
2018-07-14T03:01:59.352Z,5.20
2018-07-14T03:04:28.700Z,5.53
2018-07-14T03:06:58.542Z,5.67
2018-07-14T03:09:27.749Z,5.43
2018-07-14T03:11:56.944Z,5.10
2018-07-14T03:14:26.193Z,5.40
2018-07-14T03:16:55.836Z,5.83
2018-07-14T03:19:25.072Z,5.50
2018-07-14T03:21:54.297Z,5.40
2018-07-14T03:24:23.488Z,5.50
2018-07-14T03:26:52.699Z,6.27
2018-07-14T03:29:21.980Z,5.73
2018-07-14T03:31:51.212Z,5.90
2018-07-14T03:34:20.827Z,6.00
2018-07-14T03:36:50.420Z,5.30
2018-07-14T03:39:19.512Z,6.07
2018-07-14T03:41:48.708Z,4.60
2018-07-14T03:44:17.952Z,5.40
2018-07-14T03:46:47.144Z,5.13
2018-07-14T03:49:16.345Z,6.00
2018-07-14T03:51:46.169Z,5.93
2018-07-14T03:54:15.408Z,6.43
2018-07-14T03:56:44.682Z,5.63
2018-07-14T03:59:13.832Z,5.73
2018-07-14T04:01:43.065Z,4.73
2018-07-14T04:04:12.266Z,4.90
2018-07-14T04:06:41.528Z,5.50
2018-07-14T04:09:10.864Z,5.00
2018-07-14T04:11:40.067Z,5.77
2018-07-14T04:14:09.679Z,5.47
2018-07-14T04:16:38.872Z,5.70
2018-07-14T04:19:08.648Z,6.00
2018-07-14T04:21:37.860Z,5.10
2018-07-14T04:24:07.301Z,5.10
2018-07-14T04:26:36.504Z,5.60
2018-07-14T04:29:06.163Z,6.10
2018-07-14T04:31:35.460Z,6.83
2018-07-14T04:34:04.666Z,5.57
2018-07-14T04:36:34.597Z,5.70
2018-07-14T04:39:05.136Z,5.70
2018-07-14T04:41:34.600Z,5.20
2018-07-14T04:44:03.928Z,5.70
2018-07-14T04:46:33.140Z,6.47
2018-07-14T04:49:02.382Z,5.83
2018-07-14T04:51:31.640Z,5.70
2018-07-14T04:54:00.872Z,6.20
2018-07-14T04:56:30.048Z,5.63
2018-07-14T04:58:59.540Z,6.53
2018-07-14T05:01:28.759Z,5.57
2018-07-14T05:03:57.951Z,6.10
2018-07-14T05:06:27.228Z,5.73
2018-07-14T05:08:56.407Z,6.07
2018-07-14T05:11:25.811Z,5.93
2018-07-14T05:13:55.041Z,6.00
2018-07-14T05:16:24.416Z,5.60
2018-07-14T05:18:53.617Z,5.90
2018-07-14T05:21:23.572Z,6.47
2018-07-14T05:23:52.768Z,6.20
2018-07-14T05:26:21.977Z,6.50
2018-07-14T05:28:51.216Z,6.10
2018-07-14T05:31:20.419Z,5.70
2018-07-14T05:33:49.617Z,6.20
2018-07-14T05:36:18.849Z,5.60
2018-07-14T05:38:48.096Z,6.30
2018-07-14T05:41:17.316Z,5.70
2018-07-14T05:43:46.944Z,5.47
2018-07-14T05:46:16.140Z,5.77
2018-07-14T05:48:45.340Z,6.20
2018-07-14T05:51:14.559Z,5.67
2018-07-14T05:53:43.913Z,6.50
2018-07-14T05:56:13.097Z,5.67
2018-07-14T05:58:42.332Z,5.80
2018-07-14T06:01:12.055Z,6.00
2018-07-14T06:03:41.261Z,5.60
2018-07-14T06:06:10.952Z,5.60
2018-07-14T06:08:40.156Z,6.47
2018-07-14T06:11:09.339Z,5.90
2018-07-14T06:13:38.605Z,6.40
2018-07-14T06:16:07.809Z,6.17
2018-07-14T06:18:36.687Z,6.23
2018-07-14T06:21:05.883Z,6.33
2018-07-14T06:23:35.539Z,6.60
2018-07-14T06:26:05.118Z,6.80
2018-07-14T06:28:34.664Z,6.77
2018-07-14T06:31:04.073Z,6.33
2018-07-14T06:33:33.269Z,5.13
2018-07-14T06:36:02.530Z,6.20
2018-07-14T06:38:31.733Z,5.27
2018-07-14T06:41:00.927Z,5.80
2018-07-14T06:43:30.204Z,5.83
2018-07-14T06:45:59.422Z,5.83
2018-07-14T06:48:28.351Z,5.27
2018-07-14T06:50:58.180Z,6.23
2018-07-14T06:53:27.362Z,5.53
2018-07-14T06:55:56.568Z,6.00
2018-07-14T06:58:25.773Z,4.63
2018-07-14T07:00:54.965Z,4.87
2018-07-14T07:03:24.425Z,5.70
2018-07-14T07:05:53.623Z,5.67
2018-07-14T07:08:22.825Z,5.83
2018-07-14T07:10:51.691Z,5.47
2018-07-14T07:13:21.254Z,5.70
2018-07-14T07:15:50.450Z,5.70
2018-07-14T07:18:19.792Z,5.57
2018-07-14T07:20:49.020Z,5.87
2018-07-14T07:23:17.912Z,4.80
2018-07-14T07:25:47.453Z,5.40
2018-07-14T07:28:16.676Z,6.03
2018-07-14T07:30:45.876Z,5.50
2018-07-14T07:33:15.324Z,4.90
2018-07-14T07:35:45.473Z,5.27
2018-07-14T07:38:14.681Z,5.87
2018-07-14T07:40:44.148Z,5.17
2018-07-14T07:43:13.473Z,5.00
2018-07-14T07:45:42.683Z,4.57
2018-07-14T07:48:11.985Z,5.57
2018-07-14T07:50:41.192Z,5.63
2018-07-14T07:53:10.381Z,5.50
2018-07-14T07:55:39.624Z,5.50
2018-07-14T07:58:09.484Z,5.60
2018-07-14T08:00:39.033Z,5.30
2018-07-14T08:03:08.249Z,4.83
2018-07-14T08:05:37.480Z,5.00
2018-07-14T08:08:06.808Z,5.03
2018-07-14T08:10:36.004Z,5.47
2018-07-14T08:13:05.288Z,4.80
2018-07-14T08:15:34.516Z,5.43
2018-07-14T08:18:03.753Z,5.30
2018-07-14T08:20:33.192Z,5.10
2018-07-14T08:23:02.454Z,5.20
2018-07-14T08:25:31.815Z,5.30
2018-07-14T08:28:01.332Z,5.17
2018-07-14T08:30:30.532Z,4.90
2018-07-14T08:33:00.014Z,4.80
2018-07-14T08:35:29.320Z,4.60
2018-07-14T08:37:58.624Z,4.37
2018-07-14T08:40:27.867Z,4.40
2018-07-14T08:42:57.516Z,4.20
2018-07-14T08:45:26.782Z,4.53
2018-07-14T08:47:56.008Z,5.07
2018-07-14T08:50:25.175Z,4.93
2018-07-14T08:52:54.066Z,4.33
2018-07-14T08:55:23.140Z,4.80
2018-07-14T08:57:52.515Z,5.00
2018-07-14T09:00:21.856Z,4.67
2018-07-14T09:02:51.104Z,5.07
2018-07-14T09:05:20.560Z,5.07
2018-07-14T09:07:51.451Z,4.87
2018-07-14T09:10:20.663Z,5.60
2018-07-14T09:12:49.892Z,5.23
2018-07-14T09:15:19.096Z,5.53
2018-07-14T09:17:48.331Z,5.37
2018-07-14T09:20:17.557Z,5.10
2018-07-14T09:22:46.773Z,5.03
2018-07-14T09:25:15.999Z,5.07
2018-07-14T09:27:45.452Z,5.20
2018-07-14T09:30:15.033Z,4.80
2018-07-14T09:32:44.512Z,5.27
2018-07-14T09:35:13.752Z,5.47
2018-07-14T09:37:44.044Z,5.27
2018-07-14T09:40:13.390Z,4.50
2018-07-14T09:42:42.606Z,4.77
2018-07-14T09:45:11.865Z,4.53
2018-07-14T09:47:41.092Z,4.90
2018-07-14T09:50:10.657Z,5.33
2018-07-14T09:52:39.846Z,4.77
2018-07-14T09:55:08.757Z,4.40
2018-07-14T09:57:37.893Z,4.30
2018-07-14T10:00:11.454Z,5.10
2018-07-14T10:02:40.773Z,4.53
2018-07-14T10:05:12.060Z,5.10
2018-07-14T10:07:41.842Z,3.93
2018-07-14T10:10:11.017Z,4.33
2018-07-14T10:12:40.312Z,3.93
2018-07-14T10:15:09.730Z,4.80
2018-07-14T10:17:39.008Z,4.07
2018-07-14T10:20:08.281Z,4.57
2018-07-14T10:22:37.970Z,3.90
2018-07-14T10:25:07.185Z,4.57
2018-07-14T10:27:36.428Z,4.00
2018-07-14T10:30:05.944Z,3.27
2018-07-14T10:32:35.477Z,3.97
2018-07-14T10:35:05.017Z,3.90
2018-07-14T10:37:34.420Z,4.10
2018-07-14T10:40:04.021Z,4.00
2018-07-14T10:42:33.521Z,3.90
2018-07-14T10:45:02.888Z,4.33
2018-07-14T10:47:32.061Z,3.90
2018-07-14T10:50:01.257Z,4.30
2018-07-14T10:52:30.672Z,4.63
2018-07-14T10:55:00.093Z,3.33
2018-07-14T10:57:29.268Z,3.50
2018-07-14T10:59:58.531Z,3.67
2018-07-14T11:02:32.150Z,3.40
2018-07-14T11:05:01.391Z,3.80
2018-07-14T11:07:30.876Z,3.50
2018-07-14T11:10:00.508Z,3.40
2018-07-14T11:12:29.996Z,3.43
2018-07-14T11:14:59.327Z,3.13
2018-07-14T11:17:28.908Z,3.27
2018-07-14T11:19:58.501Z,3.63
2018-07-14T11:22:27.929Z,3.40
2018-07-14T11:24:57.234Z,3.13
2018-07-14T11:27:28.264Z,2.80
2018-07-14T11:29:57.716Z,2.80
2018-07-14T11:32:27.360Z,2.90
2018-07-14T11:34:56.944Z,2.83
2018-07-14T11:37:26.580Z,3.63
2018-07-14T11:39:56.146Z,2.70
2018-07-14T11:42:25.696Z,2.63
2018-07-14T11:44:54.956Z,2.60
2018-07-14T11:47:24.274Z,2.93
2018-07-14T11:49:53.581Z,2.30
2018-07-14T11:52:22.896Z,2.23
2018-07-14T11:54:52.488Z,2.33
2018-07-14T11:57:21.800Z,2.13
2018-07-14T11:59:51.321Z,2.40
2018-07-14T12:02:20.544Z,2.70
2018-07-14T12:04:49.872Z,2.63
2018-07-14T12:07:19.404Z,2.37
2018-07-14T12:09:51.010Z,2.27
2018-07-14T12:12:20.356Z,2.43
2018-07-14T12:14:49.964Z,2.53
2018-07-14T12:17:19.547Z,1.97
2018-07-14T12:19:48.913Z,2.20
2018-07-14T12:22:18.255Z,2.60
2018-07-14T12:24:47.472Z,2.10
2018-07-14T12:27:17.991Z,2.03
2018-07-14T12:29:47.305Z,2.40
2018-07-14T12:32:17.848Z,1.87
2018-07-14T12:34:47.064Z,2.10
2018-07-14T12:37:16.540Z,1.83
2018-07-14T12:39:46.324Z,2.03
2018-07-14T12:42:15.776Z,2.20
2018-07-14T12:44:44.993Z,2.10
2018-07-14T12:47:14.261Z,2.20
2018-07-14T12:49:45.700Z,1.90
2018-07-14T12:52:15.094Z,1.87
2018-07-14T12:54:44.674Z,2.10
2018-07-14T12:57:13.962Z,2.17
2018-07-14T12:59:43.607Z,2.20
2018-07-14T13:02:13.236Z,2.10
2018-07-14T13:04:43.204Z,1.80
2018-07-14T13:07:14.538Z,1.90
2018-07-14T13:09:45.235Z,1.60
2018-07-14T13:12:14.632Z,1.97
2018-07-14T13:14:46.152Z,1.83
2018-07-14T13:17:15.727Z,1.57
2018-07-14T13:19:44.952Z,1.80
2018-07-14T13:22:14.326Z,6.67
2018-07-14T13:24:43.599Z,2.57
2018-07-14T13:27:12.960Z,1.50
2018-07-14T13:29:43.328Z,1.80
2018-07-14T13:32:12.758Z,1.70
2018-07-14T13:34:42.396Z,2.40
2018-07-14T13:37:11.720Z,1.40
2018-07-14T13:39:40.942Z,1.53
2018-07-14T13:42:10.204Z,1.43
2018-07-14T13:44:39.452Z,2.07
2018-07-14T13:47:08.684Z,1.50
2018-07-14T13:49:37.888Z,1.40
2018-07-14T13:52:07.209Z,1.60
2018-07-14T13:54:36.426Z,1.70
2018-07-14T13:57:06.354Z,1.80
2018-07-14T13:59:36.104Z,1.60
2018-07-14T14:02:05.871Z,1.53
2018-07-14T14:04:35.129Z,1.60
2018-07-14T14:07:08.156Z,6.80
2018-07-14T14:09:37.392Z,2.17
2018-07-14T14:12:07.037Z,1.47
2018-07-14T14:14:36.720Z,1.40
2018-07-14T14:17:06.388Z,1.50
2018-07-14T14:19:35.624Z,1.50
2018-07-14T14:22:05.091Z,1.60
2018-07-14T14:24:34.699Z,2.83
2018-07-14T14:27:04.528Z,5.97
2018-07-14T14:29:33.752Z,1.70
2018-07-14T14:32:02.953Z,1.63
2018-07-14T14:34:34.772Z,1.40
2018-07-14T14:37:05.413Z,1.60
2018-07-14T14:39:35.350Z,1.60
2018-07-14T14:42:04.900Z,1.50
2018-07-14T14:44:35.388Z,1.63
2018-07-14T14:47:04.804Z,1.40
2018-07-14T14:49:34.003Z,1.40
2018-07-14T14:52:03.292Z,1.33
2018-07-14T14:54:32.507Z,1.50
2018-07-14T14:57:02.983Z,1.53
2018-07-14T14:59:32.184Z,1.53
2018-07-14T15:02:01.479Z,1.60
2018-07-14T15:04:31.019Z,1.60
2018-07-14T15:07:00.214Z,1.70
2018-07-14T15:09:29.584Z,1.70
2018-07-14T15:11:58.819Z,1.70
2018-07-14T15:14:28.165Z,1.60
2018-07-14T15:16:57.440Z,1.70
2018-07-14T15:19:27.131Z,1.47
2018-07-14T15:21:56.382Z,1.60
2018-07-14T15:24:25.916Z,2.10
2018-07-14T15:26:55.134Z,1.53
2018-07-14T15:29:24.572Z,2.53
2018-07-14T15:31:53.822Z,2.57
2018-07-14T15:34:25.373Z,1.57
2018-07-14T15:36:54.695Z,2.53
2018-07-14T15:39:24.105Z,2.20
2018-07-14T15:41:53.605Z,2.80
2018-07-14T15:44:23.303Z,1.93
2018-07-14T15:46:52.836Z,2.20
2018-07-14T15:49:24.338Z,1.87
2018-07-14T15:51:53.536Z,3.20
2018-07-14T15:54:23.044Z,2.53
2018-07-14T15:56:52.464Z,2.27
2018-07-14T15:59:21.736Z,1.90
2018-07-14T16:01:51.057Z,2.20
2018-07-14T16:04:20.369Z,1.63
2018-07-14T16:06:49.725Z,2.00
2018-07-14T16:09:19.012Z,1.47
2018-07-14T16:11:48.284Z,1.47
2018-07-14T16:14:17.604Z,1.57
2018-07-14T16:16:46.882Z,1.80
2018-07-14T16:19:16.100Z,1.60
2018-07-14T16:21:46.348Z,1.60
2018-07-14T16:24:15.604Z,1.80
2018-07-14T16:26:44.869Z,1.77
2018-07-14T16:29:14.163Z,1.80
2018-07-14T16:31:43.415Z,2.10
2018-07-14T16:34:12.697Z,1.70
2018-07-14T16:36:42.375Z,1.90
2018-07-14T16:39:11.729Z,1.60
2018-07-14T16:41:41.288Z,1.60
2018-07-14T16:44:11.628Z,1.73
2018-07-14T16:46:40.917Z,2.07
2018-07-14T16:49:10.145Z,1.60
2018-07-14T16:51:39.512Z,1.53
2018-07-14T16:54:08.832Z,1.80
2018-07-14T16:56:38.334Z,1.50
2018-07-14T16:59:07.541Z,1.60
2018-07-14T17:01:36.900Z,1.60
2018-07-14T17:04:06.200Z,1.60
2018-07-14T17:06:35.152Z,1.80
2018-07-14T17:09:04.966Z,1.53
2018-07-14T17:11:34.238Z,1.70
2018-07-14T17:14:04.526Z,1.63
2018-07-14T17:16:33.852Z,1.80
2018-07-14T17:19:03.394Z,2.07
2018-07-14T17:21:32.612Z,1.70
2018-07-14T17:24:01.978Z,1.60
2018-07-14T17:26:31.207Z,1.90
2018-07-14T17:29:00.398Z,2.00
2018-07-14T17:31:31.736Z,2.20
2018-07-14T17:34:00.980Z,1.83
2018-07-14T17:36:32.980Z,2.00
2018-07-14T17:39:02.414Z,1.60
2018-07-14T17:41:31.750Z,1.60
2018-07-14T17:44:01.328Z,1.50
2018-07-14T17:46:30.536Z,1.87
2018-07-14T17:49:02.088Z,1.90
2018-07-14T17:51:31.348Z,2.03
2018-07-14T17:54:00.604Z,1.80
2018-07-14T17:56:30.036Z,1.80
2018-07-14T17:58:59.338Z,1.80
2018-07-14T18:01:28.616Z,1.80
2018-07-14T18:03:57.950Z,1.63
2018-07-14T18:06:27.492Z,1.70
2018-07-14T18:08:56.778Z,1.67
2018-07-14T18:11:26.629Z,1.90
2018-07-14T18:13:56.001Z,1.63
2018-07-14T18:16:27.105Z,1.90
2018-07-14T18:18:56.251Z,1.97
2018-07-14T18:21:26.103Z,1.70
2018-07-14T18:23:55.890Z,1.80
2018-07-14T18:26:25.376Z,2.20
2018-07-14T18:28:54.573Z,1.83
2018-07-14T18:31:23.799Z,1.50
2018-07-14T18:33:54.072Z,1.70
2018-07-14T18:36:23.283Z,2.07
2018-07-14T18:38:52.827Z,2.03
2018-07-14T18:41:22.033Z,2.57
2018-07-14T18:43:51.613Z,1.93
2018-07-14T18:46:21.200Z,2.20
2018-07-14T18:48:50.464Z,2.23
2018-07-14T18:51:19.740Z,2.00
2018-07-14T18:53:49.013Z,2.50
2018-07-14T18:56:18.524Z,2.50
2018-07-14T18:58:47.865Z,4.30
2018-07-14T19:01:17.107Z,2.47
2018-07-14T19:03:46.171Z,2.43
2018-07-14T19:06:15.604Z,2.90
2018-07-14T19:08:44.887Z,2.87
2018-07-14T19:11:14.076Z,2.90
2018-07-14T19:13:43.473Z,2.23
2018-07-14T19:16:12.765Z,2.47
2018-07-14T19:18:41.985Z,2.30
2018-07-14T19:21:11.290Z,2.90
2018-07-14T19:23:40.650Z,2.60
2018-07-14T19:26:10.088Z,2.33
2018-07-14T19:28:39.272Z,2.37
2018-07-14T19:31:08.764Z,2.43
2018-07-14T19:33:38.004Z,2.87
2018-07-14T19:36:07.288Z,2.10
2018-07-14T19:38:36.617Z,2.40
2018-07-14T19:41:05.907Z,2.73
2018-07-14T19:43:35.284Z,2.70
2018-07-14T19:46:05.954Z,2.90
2018-07-14T19:48:35.212Z,2.77
2018-07-14T19:51:04.522Z,2.60
2018-07-14T19:53:33.846Z,2.90
2018-07-14T19:56:03.301Z,3.00
2018-07-14T19:58:32.703Z,2.90
2018-07-14T20:01:01.972Z,2.63
2018-07-14T20:03:31.173Z,2.50
2018-07-14T20:06:03.325Z,2.50
2018-07-14T20:08:32.684Z,2.47
2018-07-14T20:11:04.199Z,2.53
2018-07-14T20:13:33.544Z,2.73
2018-07-14T20:16:02.768Z,2.60
2018-07-14T20:18:32.119Z,3.13
2018-07-14T20:21:01.441Z,3.20
2018-07-14T20:23:30.972Z,2.40
2018-07-14T20:26:00.815Z,3.00
2018-07-14T20:28:30.457Z,2.60
2018-07-14T20:30:59.740Z,3.40
2018-07-14T20:33:30.340Z,3.40
2018-07-14T20:36:00.859Z,3.80
2018-07-14T20:38:30.956Z,3.40
2018-07-14T20:41:00.589Z,3.90
2018-07-14T20:43:29.832Z,5.20
2018-07-14T20:45:59.579Z,4.90
2018-07-14T20:48:29.067Z,3.47
2018-07-14T20:50:58.511Z,4.23
2018-07-14T20:53:27.996Z,3.83
2018-07-14T20:55:57.407Z,3.90
2018-07-14T20:58:26.632Z,4.63
2018-07-14T21:00:55.949Z,4.17
2018-07-14T21:03:25.287Z,3.77
2018-07-14T21:05:54.768Z,3.80
2018-07-14T21:08:31.144Z,3.80
2018-07-14T21:11:00.508Z,3.63
2018-07-14T21:13:29.710Z,2.93
2018-07-14T21:15:59.152Z,4.00
2018-07-14T21:18:28.368Z,3.30
2018-07-14T21:20:57.570Z,4.30
2018-07-14T21:23:26.836Z,4.07
2018-07-14T21:25:56.375Z,3.50
2018-07-14T21:28:25.567Z,3.90
2018-07-14T21:30:55.165Z,2.87
2018-07-14T21:33:24.404Z,3.57
2018-07-14T21:35:53.592Z,3.73
2018-07-14T21:38:22.816Z,4.10
2018-07-14T21:40:51.732Z,3.80
2018-07-14T21:43:21.141Z,4.10
2018-07-14T21:45:50.393Z,4.37
2018-07-14T21:48:19.684Z,3.80
2018-07-14T21:50:48.916Z,3.47
2018-07-14T21:53:18.871Z,3.80
2018-07-14T21:55:48.260Z,4.47
2018-07-14T21:58:17.509Z,4.50
2018-07-14T22:00:53.076Z,4.20
2018-07-14T22:03:22.312Z,4.70
2018-07-14T22:05:51.508Z,4.07
2018-07-14T22:08:21.433Z,4.87
2018-07-14T22:10:50.639Z,4.43
2018-07-14T22:13:19.852Z,4.60
2018-07-14T22:15:49.117Z,4.63
2018-07-14T22:18:18.313Z,4.63
2018-07-14T22:20:47.552Z,5.43
2018-07-14T22:23:17.060Z,4.97
2018-07-14T22:25:46.256Z,5.57
2018-07-14T22:28:15.501Z,4.60
2018-07-14T22:30:45.136Z,4.60
2018-07-14T22:33:14.339Z,4.63
2018-07-14T22:35:43.536Z,4.60
2018-07-14T22:38:12.796Z,4.67
2018-07-14T22:40:41.842Z,5.13
2018-07-14T22:43:10.922Z,4.60
2018-07-14T22:45:40.900Z,4.40
2018-07-14T22:48:09.783Z,3.97
2018-07-14T22:50:38.860Z,4.03
2018-07-14T22:53:08.532Z,4.07
2018-07-14T22:55:37.827Z,4.20
2018-07-14T22:58:07.092Z,4.40
2018-07-14T23:00:36.017Z,4.53
2018-07-14T23:03:05.075Z,4.40
2018-07-14T23:05:34.152Z,4.10
2018-07-14T23:08:03.430Z,4.87
2018-07-14T23:10:32.652Z,4.33
2018-07-14T23:13:01.856Z,5.00
2018-07-14T23:15:31.373Z,4.90
2018-07-14T23:18:00.576Z,4.40
2018-07-14T23:20:29.796Z,5.10
2018-07-14T23:22:59.020Z,4.63
2018-07-14T23:25:28.254Z,4.53
2018-07-14T23:27:57.468Z,5.40
2018-07-14T23:30:26.728Z,4.50
2018-07-14T23:32:55.945Z,4.60
2018-07-14T23:35:25.150Z,4.90
2018-07-14T23:37:54.728Z,4.27
2018-07-14T23:40:23.977Z,4.77
2018-07-14T23:42:52.861Z,4.87
2018-07-14T23:45:22.025Z,5.17
2018-07-14T23:47:51.696Z,4.73
2018-07-14T23:50:20.568Z,4.70
2018-07-14T23:52:49.768Z,4.77
2018-07-14T23:55:19.056Z,5.50
2018-07-14T23:57:48.281Z,5.07
